This demonstration page uses our WeatherBlox Daily Observations layout. Learn more.

38.88101, -77.10428

Hourly Observations for March 27, 2020

Temp ( °F °C ) Dew Point ( °F °C ) Humidity (%) Winds ( mph kmh ) Pressure ( in mb ) Visibility ( mi km ) Precip ( " mm )
12:52 am 00:52 Cloudy 54 12.2 46 7.8 75 75 SSW 12 19 29.83 1010 10 16.0934 0 0
1:52 am 01:52 Cloudy 53 11.7 46 7.8 77 77 SSW 3 6 29.83 1010 10 16.0934 0 0
2:52 am 02:52 Cloudy 53 11.7 47 8.3 80 80 S 5 7 29.82 1010 10 16.0934 0 0
3:52 am 03:52 Cloudy 53 11.7 48 8.9 83 83 S 5 7 29.79 1009 10 16.0934 0 0
4:52 am 04:52 Cloudy with Light Rain 53 11.7 48 8.9 83 83 S 3 6 29.8 1009 10 16.0934 0.001 0.001
5:52 am 05:52 Mostly Cloudy 53 11.7 48 8.9 83 83 Calm 29.8 1009 10 16.0934 0.001 0.001
6:52 am 06:52 Partly Cloudy 52 11.1 47 8.3 83 83 SSW 5 7 29.8 1009 10 16.0934 0 0
7:52 am 07:52 Partly Cloudy 54 12.2 48 8.9 80 80 Calm 29.85 1011 10 16.0934 0 0
8:52 am 08:52 Mostly Sunny 57 13.9 49 9.4 74 74 NNW 7 11 29.87 1012 10 16.0934 0 0
9:52 am 09:52 Partly Cloudy 61 16.1 49 9.4 65 65 VRB 7 11 29.87 1012 10 16.0934 0 0
10:52 am 10:52 Partly Cloudy 63 17.2 49 9.4 60 60 NE 6 9 29.88 1012 10 16.0934 0 0
11:52 am 11:52 Cloudy 65 18.3 49 9.4 56 56 N 6 9 29.9 1012 10 16.0934 0 0
12:52 pm 12:52 Mostly Cloudy 68 20 50 10 53 53 NNE 8 13 29.92 1013 10 16.0934 0 0
1:52 pm 13:52 Cloudy 68 20 49 9.4 51 51 N 8 13 29.9 1013 10 16.0934 0 0
2:52 pm 14:52 Cloudy 69 20.6 48 8.9 47 47 NNE 5 7 29.88 1012 10 16.0934 0 0
3:52 pm 15:52 Cloudy 66 18.9 48 8.9 52 52 N 10 17 29.9 1013 10 16.0934 0 0
4:52 pm 16:52 Mostly Cloudy 66 18.9 48 8.9 52 52 N 8 13 29.92 1013 10 16.0934 0 0
5:52 pm 17:52 Mostly Cloudy 66 18.9 50 10 56 56 NE 3 6 29.93 1014 10 16.0934 0 0
6:52 pm 18:52 Mostly Cloudy 65 18.3 47 8.3 52 52 Calm 29.95 1014 10 16.0934 0 0
7:52 pm 19:52 Cloudy 62 16.7 50 10 65 65 SE 10 17 29.98 1015 10 16.0934 0 0
8:52 pm 20:52 Cloudy 61 16.1 49 9.4 65 65 S 5 7 30.01 1016 10 16.0934 0 0
9:52 pm 21:52 Cloudy 59 15 49 9.4 69 69 S 7 11 30 1016 10 16.0934 0 0
10:52 pm 22:52 Cloudy 60 15.6 49 9.4 67 67 Calm 30.02 1017 10 16.0934 0 0
11:52 pm 23:52 Cloudy 59 15 49 9.4 69 69 S 3 6 30.03 1017 10 16.0934 0 0

Powered by AerisWeather